sensor_id;sensor_type;location;lat;lon;timestamp;P1;durP1;ratioP1;P2;durP2;ratioP2
73296;SDS011;61524;50.938;11.396;2023-08-06T00:01:22;5.97;;;2.20;;
73296;SDS011;61524;50.938;11.396;2023-08-06T00:03:47;5.10;;;2.67;;
73296;SDS011;61524;50.938;11.396;2023-08-06T00:06:13;4.27;;;2.10;;
73296;SDS011;61524;50.938;11.396;2023-08-06T00:08:38;5.93;;;2.50;;
73296;SDS011;61524;50.938;11.396;2023-08-06T00:11:03;4.23;;;2.13;;
73296;SDS011;61524;50.938;11.396;2023-08-06T00:13:28;4.27;;;2.67;;
73296;SDS011;61524;50.938;11.396;2023-08-06T00:15:54;6.30;;;2.43;;
73296;SDS011;61524;50.938;11.396;2023-08-06T00:18:19;5.03;;;2.77;;
73296;SDS011;61524;50.938;11.396;2023-08-06T00:20:44;5.13;;;2.40;;
73296;SDS011;61524;50.938;11.396;2023-08-06T00:23:09;5.63;;;2.87;;
73296;SDS011;61524;50.938;11.396;2023-08-06T00:25:35;4.30;;;2.37;;
73296;SDS011;61524;50.938;11.396;2023-08-06T00:28:00;4.05;;;2.50;;
73296;SDS011;61524;50.938;11.396;2023-08-06T00:30:25;4.55;;;2.65;;
73296;SDS011;61524;50.938;11.396;2023-08-06T00:32:51;6.40;;;2.47;;
73296;SDS011;61524;50.938;11.396;2023-08-06T00:35:16;6.70;;;3.00;;
73296;SDS011;61524;50.938;11.396;2023-08-06T00:37:41;4.47;;;2.73;;
73296;SDS011;61524;50.938;11.396;2023-08-06T00:40:07;4.33;;;2.30;;
73296;SDS011;61524;50.938;11.396;2023-08-06T00:42:32;5.13;;;3.03;;
73296;SDS011;61524;50.938;11.396;2023-08-06T00:49:49;4.73;;;2.50;;
73296;SDS011;61524;50.938;11.396;2023-08-06T00:52:15;4.93;;;2.53;;
73296;SDS011;61524;50.938;11.396;2023-08-06T00:54:40;6.20;;;2.50;;
73296;SDS011;61524;50.938;11.396;2023-08-06T00:57:06;4.43;;;2.55;;
73296;SDS011;61524;50.938;11.396;2023-08-06T00:59:32;3.97;;;2.53;;
73296;SDS011;61524;50.938;11.396;2023-08-06T01:01:57;4.63;;;2.33;;
73296;SDS011;61524;50.938;11.396;2023-08-06T01:04:23;4.57;;;2.47;;
73296;SDS011;61524;50.938;11.396;2023-08-06T01:06:49;4.78;;;2.75;;
73296;SDS011;61524;50.938;11.396;2023-08-06T01:09:41;4.70;;;2.88;;
73296;SDS011;61524;50.938;11.396;2023-08-06T01:12:25;4.93;;;3.13;;
73296;SDS011;61524;50.938;11.396;2023-08-06T01:17:20;4.83;;;2.63;;
73296;SDS011;61524;50.938;11.396;2023-08-06T01:19:45;3.87;;;2.43;;
73296;SDS011;61524;50.938;11.396;2023-08-06T01:22:10;4.43;;;2.20;;
73296;SDS011;61524;50.938;11.396;2023-08-06T01:24:35;5.50;;;2.43;;
73296;SDS011;61524;50.938;11.396;2023-08-06T01:29:39;5.53;;;2.77;;
73296;SDS011;61524;50.938;11.396;2023-08-06T01:32:07;4.28;;;2.45;;
73296;SDS011;61524;50.938;11.396;2023-08-06T01:34:33;6.53;;;2.53;;
73296;SDS011;61524;50.938;11.396;2023-08-06T01:36:59;5.32;;;2.28;;
73296;SDS011;61524;50.938;11.396;2023-08-06T01:39:25;4.32;;;2.60;;
73296;SDS011;61524;50.938;11.396;2023-08-06T01:41:50;4.93;;;2.50;;
73296;SDS011;61524;50.938;11.396;2023-08-06T01:44:15;5.13;;;2.60;;
73296;SDS011;61524;50.938;11.396;2023-08-06T01:46:41;6.57;;;2.55;;
73296;SDS011;61524;50.938;11.396;2023-08-06T01:49:06;4.97;;;2.83;;
73296;SDS011;61524;50.938;11.396;2023-08-06T01:51:31;5.97;;;2.50;;
73296;SDS011;61524;50.938;11.396;2023-08-06T01:53:57;4.35;;;2.60;;
73296;SDS011;61524;50.938;11.396;2023-08-06T01:56:22;7.93;;;2.67;;
73296;SDS011;61524;50.938;11.396;2023-08-06T01:58:47;6.55;;;2.88;;
73296;SDS011;61524;50.938;11.396;2023-08-06T02:01:13;5.00;;;2.63;;
73296;SDS011;61524;50.938;11.396;2023-08-06T02:03:38;5.17;;;2.63;;
73296;SDS011;61524;50.938;11.396;2023-08-06T02:06:03;4.07;;;2.93;;
73296;SDS011;61524;50.938;11.396;2023-08-06T02:08:28;6.53;;;2.53;;
73296;SDS011;61524;50.938;11.396;2023-08-06T02:10:54;5.18;;;2.60;;
73296;SDS011;61524;50.938;11.396;2023-08-06T02:13:19;5.23;;;2.93;;
73296;SDS011;61524;50.938;11.396;2023-08-06T02:15:45;6.90;;;2.73;;
73296;SDS011;61524;50.938;11.396;2023-08-06T02:18:12;5.50;;;2.53;;
73296;SDS011;61524;50.938;11.396;2023-08-06T02:20:37;6.80;;;2.85;;
73296;SDS011;61524;50.938;11.396;2023-08-06T02:23:03;5.03;;;2.67;;
73296;SDS011;61524;50.938;11.396;2023-08-06T02:25:28;4.77;;;2.40;;
73296;SDS011;61524;50.938;11.396;2023-08-06T02:27:53;4.47;;;2.53;;
73296;SDS011;61524;50.938;11.396;2023-08-06T02:30:18;4.13;;;2.37;;
73296;SDS011;61524;50.938;11.396;2023-08-06T02:32:44;3.75;;;2.20;;
73296;SDS011;61524;50.938;11.396;2023-08-06T02:35:09;5.53;;;2.70;;
73296;SDS011;61524;50.938;11.396;2023-08-06T02:37:34;4.73;;;2.50;;
73296;SDS011;61524;50.938;11.396;2023-08-06T02:40:00;4.60;;;2.65;;
73296;SDS011;61524;50.938;11.396;2023-08-06T02:42:25;6.07;;;2.73;;
73296;SDS011;61524;50.938;11.396;2023-08-06T02:44:52;3.85;;;2.30;;
73296;SDS011;61524;50.938;11.396;2023-08-06T02:47:17;4.63;;;2.50;;
73296;SDS011;61524;50.938;11.396;2023-08-06T02:49:43;6.17;;;2.27;;
73296;SDS011;61524;50.938;11.396;2023-08-06T02:52:08;4.68;;;2.75;;
73296;SDS011;61524;50.938;11.396;2023-08-06T02:54:33;6.77;;;2.60;;
73296;SDS011;61524;50.938;11.396;2023-08-06T02:56:58;4.20;;;2.70;;
73296;SDS011;61524;50.938;11.396;2023-08-06T02:59:24;4.97;;;2.60;;
73296;SDS011;61524;50.938;11.396;2023-08-06T03:01:49;4.10;;;2.47;;
73296;SDS011;61524;50.938;11.396;2023-08-06T03:04:14;5.20;;;2.80;;
73296;SDS011;61524;50.938;11.396;2023-08-06T03:06:39;4.22;;;2.60;;
73296;SDS011;61524;50.938;11.396;2023-08-06T03:09:05;4.70;;;2.77;;
73296;SDS011;61524;50.938;11.396;2023-08-06T03:11:30;8.93;;;2.67;;
73296;SDS011;61524;50.938;11.396;2023-08-06T03:13:55;8.95;;;2.88;;
73296;SDS011;61524;50.938;11.396;2023-08-06T03:16:21;4.15;;;2.22;;
73296;SDS011;61524;50.938;11.396;2023-08-06T03:18:46;5.03;;;2.87;;
73296;SDS011;61524;50.938;11.396;2023-08-06T03:21:12;4.32;;;2.75;;
73296;SDS011;61524;50.938;11.396;2023-08-06T03:23:37;5.50;;;2.73;;
73296;SDS011;61524;50.938;11.396;2023-08-06T03:26:03;4.70;;;2.90;;
73296;SDS011;61524;50.938;11.396;2023-08-06T03:28:28;5.90;;;2.75;;
73296;SDS011;61524;50.938;11.396;2023-08-06T03:31:00;5.55;;;2.67;;
73296;SDS011;61524;50.938;11.396;2023-08-06T03:33:25;4.45;;;2.88;;
73296;SDS011;61524;50.938;11.396;2023-08-06T03:35:51;4.80;;;2.97;;
73296;SDS011;61524;50.938;11.396;2023-08-06T03:38:16;5.30;;;3.07;;
73296;SDS011;61524;50.938;11.396;2023-08-06T03:40:41;5.47;;;2.87;;
73296;SDS011;61524;50.938;11.396;2023-08-06T03:43:07;7.47;;;2.63;;
73296;SDS011;61524;50.938;11.396;2023-08-06T03:45:32;7.10;;;2.77;;
73296;SDS011;61524;50.938;11.396;2023-08-06T03:47:57;6.17;;;2.73;;
73296;SDS011;61524;50.938;11.396;2023-08-06T03:50:22;4.70;;;2.60;;
73296;SDS011;61524;50.938;11.396;2023-08-06T03:52:48;4.90;;;2.50;;
73296;SDS011;61524;50.938;11.396;2023-08-06T03:55:13;4.40;;;2.60;;
73296;SDS011;61524;50.938;11.396;2023-08-06T03:57:38;4.70;;;2.60;;
73296;SDS011;61524;50.938;11.396;2023-08-06T04:00:03;4.82;;;2.72;;
73296;SDS011;61524;50.938;11.396;2023-08-06T04:02:29;5.70;;;2.67;;
73296;SDS011;61524;50.938;11.396;2023-08-06T04:04:54;4.93;;;2.90;;
73296;SDS011;61524;50.938;11.396;2023-08-06T04:07:20;5.68;;;2.45;;
73296;SDS011;61524;50.938;11.396;2023-08-06T04:09:54;4.77;;;2.67;;
73296;SDS011;61524;50.938;11.396;2023-08-06T04:12:20;4.50;;;2.35;;
73296;SDS011;61524;50.938;11.396;2023-08-06T04:14:45;7.00;;;3.10;;
73296;SDS011;61524;50.938;11.396;2023-08-06T04:17:10;5.60;;;3.63;;
73296;SDS011;61524;50.938;11.396;2023-08-06T04:19:36;5.87;;;3.13;;
73296;SDS011;61524;50.938;11.396;2023-08-06T04:22:01;5.73;;;3.07;;
73296;SDS011;61524;50.938;11.396;2023-08-06T04:24:26;15.30;;;3.20;;
73296;SDS011;61524;50.938;11.396;2023-08-06T04:26:51;5.27;;;2.80;;
73296;SDS011;61524;50.938;11.396;2023-08-06T04:29:17;7.00;;;2.83;;
73296;SDS011;61524;50.938;11.396;2023-08-06T04:31:42;4.57;;;2.77;;
73296;SDS011;61524;50.938;11.396;2023-08-06T04:34:07;7.13;;;3.20;;
73296;SDS011;61524;50.938;11.396;2023-08-06T04:36:34;5.57;;;2.83;;
73296;SDS011;61524;50.938;11.396;2023-08-06T04:38:59;4.63;;;2.70;;
73296;SDS011;61524;50.938;11.396;2023-08-06T04:41:24;4.77;;;3.03;;
73296;SDS011;61524;50.938;11.396;2023-08-06T04:43:49;5.57;;;2.40;;
73296;SDS011;61524;50.938;11.396;2023-08-06T04:46:15;5.57;;;2.47;;
73296;SDS011;61524;50.938;11.396;2023-08-06T04:48:40;5.03;;;3.20;;
73296;SDS011;61524;50.938;11.396;2023-08-06T04:51:05;5.10;;;2.83;;
73296;SDS011;61524;50.938;11.396;2023-08-06T04:53:31;5.10;;;3.27;;
73296;SDS011;61524;50.938;11.396;2023-08-06T04:55:56;6.03;;;2.93;;
73296;SDS011;61524;50.938;11.396;2023-08-06T04:58:21;7.83;;;2.87;;
73296;SDS011;61524;50.938;11.396;2023-08-06T05:00:46;5.13;;;3.20;;
73296;SDS011;61524;50.938;11.396;2023-08-06T05:03:12;4.65;;;3.08;;
73296;SDS011;61524;50.938;11.396;2023-08-06T05:05:39;5.83;;;2.83;;
73296;SDS011;61524;50.938;11.396;2023-08-06T05:08:04;6.97;;;2.83;;
73296;SDS011;61524;50.938;11.396;2023-08-06T05:10:30;5.55;;;2.88;;
73296;SDS011;61524;50.938;11.396;2023-08-06T05:12:55;6.07;;;2.80;;
73296;SDS011;61524;50.938;11.396;2023-08-06T05:15:20;5.50;;;2.72;;
73296;SDS011;61524;50.938;11.396;2023-08-06T05:17:46;5.53;;;2.70;;
73296;SDS011;61524;50.938;11.396;2023-08-06T05:20:11;6.40;;;2.90;;
73296;SDS011;61524;50.938;11.396;2023-08-06T05:22:36;4.78;;;2.85;;
73296;SDS011;61524;50.938;11.396;2023-08-06T05:25:02;8.25;;;2.92;;
73296;SDS011;61524;50.938;11.396;2023-08-06T05:27:27;6.20;;;3.03;;
73296;SDS011;61524;50.938;11.396;2023-08-06T05:29:54;4.13;;;2.47;;
73296;SDS011;61524;50.938;11.396;2023-08-06T05:32:20;7.97;;;2.92;;
73296;SDS011;61524;50.938;11.396;2023-08-06T05:34:45;5.60;;;3.30;;
73296;SDS011;61524;50.938;11.396;2023-08-06T05:37:10;5.63;;;3.33;;
73296;SDS011;61524;50.938;11.396;2023-08-06T05:39:35;4.67;;;2.90;;
73296;SDS011;61524;50.938;11.396;2023-08-06T05:42:01;5.53;;;3.03;;
73296;SDS011;61524;50.938;11.396;2023-08-06T05:44:26;6.53;;;2.93;;
73296;SDS011;61524;50.938;11.396;2023-08-06T05:46:51;4.85;;;2.60;;
73296;SDS011;61524;50.938;11.396;2023-08-06T05:49:18;5.45;;;2.90;;
73296;SDS011;61524;50.938;11.396;2023-08-06T05:51:43;8.07;;;2.87;;
73296;SDS011;61524;50.938;11.396;2023-08-06T05:54:08;5.27;;;3.00;;
73296;SDS011;61524;50.938;11.396;2023-08-06T05:56:34;4.60;;;2.43;;
73296;SDS011;61524;50.938;11.396;2023-08-06T05:58:59;5.07;;;2.90;;
73296;SDS011;61524;50.938;11.396;2023-08-06T06:01:24;4.93;;;2.77;;
73296;SDS011;61524;50.938;11.396;2023-08-06T06:03:49;4.53;;;2.80;;
73296;SDS011;61524;50.938;11.396;2023-08-06T06:06:15;5.53;;;3.27;;
73296;SDS011;61524;50.938;11.396;2023-08-06T06:08:41;3.83;;;2.58;;
73296;SDS011;61524;50.938;11.396;2023-08-06T06:11:06;4.13;;;2.85;;
73296;SDS011;61524;50.938;11.396;2023-08-06T06:13:32;6.43;;;3.00;;
73296;SDS011;61524;50.938;11.396;2023-08-06T06:15:57;5.43;;;3.10;;
73296;SDS011;61524;50.938;11.396;2023-08-06T06:18:22;6.77;;;3.03;;
73296;SDS011;61524;50.938;11.396;2023-08-06T06:20:47;5.30;;;2.80;;
73296;SDS011;61524;50.938;11.396;2023-08-06T06:23:13;5.33;;;2.77;;
73296;SDS011;61524;50.938;11.396;2023-08-06T06:25:42;6.80;;;2.42;;
73296;SDS011;61524;50.938;11.396;2023-08-06T06:28:08;5.70;;;2.53;;
73296;SDS011;61524;50.938;11.396;2023-08-06T06:30:33;4.50;;;2.53;;
73296;SDS011;61524;50.938;11.396;2023-08-06T06:32:59;4.77;;;2.47;;
73296;SDS011;61524;50.938;11.396;2023-08-06T06:35:24;5.17;;;2.43;;
73296;SDS011;61524;50.938;11.396;2023-08-06T06:37:49;4.50;;;2.55;;
73296;SDS011;61524;50.938;11.396;2023-08-06T06:40:15;4.63;;;2.40;;
73296;SDS011;61524;50.938;11.396;2023-08-06T06:42:40;3.10;;;1.80;;
73296;SDS011;61524;50.938;11.396;2023-08-06T06:45:05;4.15;;;2.53;;
73296;SDS011;61524;50.938;11.396;2023-08-06T06:47:31;4.45;;;2.38;;
73296;SDS011;61524;50.938;11.396;2023-08-06T06:49:56;4.70;;;2.30;;
73296;SDS011;61524;50.938;11.396;2023-08-06T06:52:21;5.15;;;2.72;;
73296;SDS011;61524;50.938;11.396;2023-08-06T06:54:47;3.70;;;2.20;;
73296;SDS011;61524;50.938;11.396;2023-08-06T06:57:12;3.73;;;2.00;;
73296;SDS011;61524;50.938;11.396;2023-08-06T06:59:37;3.90;;;2.17;;
73296;SDS011;61524;50.938;11.396;2023-08-06T07:02:03;4.25;;;2.28;;
73296;SDS011;61524;50.938;11.396;2023-08-06T07:04:28;3.45;;;2.13;;
73296;SDS011;61524;50.938;11.396;2023-08-06T07:06:54;3.75;;;2.28;;
73296;SDS011;61524;50.938;11.396;2023-08-06T07:09:19;4.70;;;2.50;;
73296;SDS011;61524;50.938;11.396;2023-08-06T07:11:44;3.90;;;2.30;;
73296;SDS011;61524;50.938;11.396;2023-08-06T07:14:10;6.63;;;2.33;;
73296;SDS011;61524;50.938;11.396;2023-08-06T07:16:35;7.05;;;2.28;;
73296;SDS011;61524;50.938;11.396;2023-08-06T07:19:00;3.80;;;2.03;;
73296;SDS011;61524;50.938;11.396;2023-08-06T07:21:25;4.67;;;2.27;;
73296;SDS011;61524;50.938;11.396;2023-08-06T07:23:51;4.50;;;2.30;;
73296;SDS011;61524;50.938;11.396;2023-08-06T07:26:16;3.93;;;2.00;;
73296;SDS011;61524;50.938;11.396;2023-08-06T07:28:41;6.57;;;2.47;;
73296;SDS011;61524;50.938;11.396;2023-08-06T07:31:07;5.60;;;2.10;;
73296;SDS011;61524;50.938;11.396;2023-08-06T07:33:32;4.27;;;2.20;;
73296;SDS011;61524;50.938;11.396;2023-08-06T07:35:57;5.33;;;2.30;;
73296;SDS011;61524;50.938;11.396;2023-08-06T07:38:23;5.00;;;2.07;;
73296;SDS011;61524;50.938;11.396;2023-08-06T07:40:48;6.40;;;2.30;;
73296;SDS011;61524;50.938;11.396;2023-08-06T07:43:13;4.63;;;2.35;;
73296;SDS011;61524;50.938;11.396;2023-08-06T07:45:39;4.60;;;2.30;;
73296;SDS011;61524;50.938;11.396;2023-08-06T07:48:04;3.80;;;2.65;;
73296;SDS011;61524;50.938;11.396;2023-08-06T07:50:29;4.70;;;2.40;;
73296;SDS011;61524;50.938;11.396;2023-08-06T07:52:55;3.70;;;2.30;;
73296;SDS011;61524;50.938;11.396;2023-08-06T07:55:20;4.00;;;1.90;;
73296;SDS011;61524;50.938;11.396;2023-08-06T07:57:45;5.37;;;1.80;;
73296;SDS011;61524;50.938;11.396;2023-08-06T08:00:10;5.07;;;2.27;;
73296;SDS011;61524;50.938;11.396;2023-08-06T08:02:36;4.65;;;1.92;;
73296;SDS011;61524;50.938;11.396;2023-08-06T08:05:01;4.70;;;2.33;;
73296;SDS011;61524;50.938;11.396;2023-08-06T08:07:26;3.90;;;2.40;;
73296;SDS011;61524;50.938;11.396;2023-08-06T08:09:54;5.28;;;2.13;;
73296;SDS011;61524;50.938;11.396;2023-08-06T08:12:19;3.80;;;2.20;;
73296;SDS011;61524;50.938;11.396;2023-08-06T08:14:44;3.80;;;2.20;;
73296;SDS011;61524;50.938;11.396;2023-08-06T08:17:10;4.68;;;2.13;;
73296;SDS011;61524;50.938;11.396;2023-08-06T08:19:36;3.67;;;2.13;;
73296;SDS011;61524;50.938;11.396;2023-08-06T08:22:01;5.07;;;2.15;;
73296;SDS011;61524;50.938;11.396;2023-08-06T08:24:26;5.15;;;2.17;;
73296;SDS011;61524;50.938;11.396;2023-08-06T08:26:52;4.88;;;2.15;;
73296;SDS011;61524;50.938;11.396;2023-08-06T08:29:18;4.55;;;2.50;;
73296;SDS011;61524;50.938;11.396;2023-08-06T08:31:44;5.50;;;2.13;;
73296;SDS011;61524;50.938;11.396;2023-08-06T08:34:09;5.13;;;2.20;;
73296;SDS011;61524;50.938;11.396;2023-08-06T08:36:34;3.67;;;1.85;;
73296;SDS011;61524;50.938;11.396;2023-08-06T08:39:00;4.50;;;2.00;;
73296;SDS011;61524;50.938;11.396;2023-08-06T08:41:27;4.20;;;2.23;;
73296;SDS011;61524;50.938;11.396;2023-08-06T08:43:53;5.40;;;2.15;;
73296;SDS011;61524;50.938;11.396;2023-08-06T08:46:19;3.72;;;2.08;;
73296;SDS011;61524;50.938;11.396;2023-08-06T08:48:44;3.70;;;2.33;;
73296;SDS011;61524;50.938;11.396;2023-08-06T08:51:10;4.18;;;2.25;;
73296;SDS011;61524;50.938;11.396;2023-08-06T08:53:36;5.35;;;2.03;;
73296;SDS011;61524;50.938;11.396;2023-08-06T08:56:04;3.83;;;1.92;;
73296;SDS011;61524;50.938;11.396;2023-08-06T08:58:29;3.53;;;2.15;;
73296;SDS011;61524;50.938;11.396;2023-08-06T09:00:54;3.33;;;1.90;;
73296;SDS011;61524;50.938;11.396;2023-08-06T09:03:20;4.53;;;2.25;;
73296;SDS011;61524;50.938;11.396;2023-08-06T09:05:45;5.95;;;2.60;;
73296;SDS011;61524;50.938;11.396;2023-08-06T09:08:15;3.88;;;2.00;;
73296;SDS011;61524;50.938;11.396;2023-08-06T09:10:43;4.43;;;2.17;;
73296;SDS011;61524;50.938;11.396;2023-08-06T09:13:08;4.38;;;2.25;;
73296;SDS011;61524;50.938;11.396;2023-08-06T09:15:33;4.53;;;2.25;;
73296;SDS011;61524;50.938;11.396;2023-08-06T09:17:59;4.45;;;2.20;;
73296;SDS011;61524;50.938;11.396;2023-08-06T09:20:24;3.87;;;2.20;;
73296;SDS011;61524;50.938;11.396;2023-08-06T09:22:52;3.63;;;2.10;;
73296;SDS011;61524;50.938;11.396;2023-08-06T09:25:21;3.63;;;2.20;;
73296;SDS011;61524;50.938;11.396;2023-08-06T09:27:46;4.63;;;2.08;;
73296;SDS011;61524;50.938;11.396;2023-08-06T09:30:12;3.95;;;2.20;;
73296;SDS011;61524;50.938;11.396;2023-08-06T09:32:53;4.00;;;1.90;;
73296;SDS011;61524;50.938;11.396;2023-08-06T09:35:18;3.92;;;1.88;;
73296;SDS011;61524;50.938;11.396;2023-08-06T09:37:44;6.63;;;3.70;;
73296;SDS011;61524;50.938;11.396;2023-08-06T09:40:28;5.20;;;1.90;;
73296;SDS011;61524;50.938;11.396;2023-08-06T09:42:54;3.28;;;2.00;;
73296;SDS011;61524;50.938;11.396;2023-08-06T09:45:20;3.30;;;1.80;;
73296;SDS011;61524;50.938;11.396;2023-08-06T09:47:47;4.75;;;1.77;;
73296;SDS011;61524;50.938;11.396;2023-08-06T09:50:18;3.42;;;1.80;;
73296;SDS011;61524;50.938;11.396;2023-08-06T09:52:44;2.92;;;1.70;;
73296;SDS011;61524;50.938;11.396;2023-08-06T09:55:13;4.85;;;1.70;;
73296;SDS011;61524;50.938;11.396;2023-08-06T09:57:39;3.65;;;1.80;;
73296;SDS011;61524;50.938;11.396;2023-08-06T10:00:05;4.65;;;1.92;;
73296;SDS011;61524;50.938;11.396;2023-08-06T10:02:33;3.60;;;2.05;;
73296;SDS011;61524;50.938;11.396;2023-08-06T10:04:58;2.92;;;1.90;;
73296;SDS011;61524;50.938;11.396;2023-08-06T10:07:24;4.15;;;2.15;;
73296;SDS011;61524;50.938;11.396;2023-08-06T10:09:49;5.45;;;1.73;;
73296;SDS011;61524;50.938;11.396;2023-08-06T10:12:15;3.35;;;1.83;;
73296;SDS011;61524;50.938;11.396;2023-08-06T10:14:43;3.83;;;1.67;;
73296;SDS011;61524;50.938;11.396;2023-08-06T10:17:09;3.55;;;1.90;;
73296;SDS011;61524;50.938;11.396;2023-08-06T10:19:35;3.78;;;1.83;;
73296;SDS011;61524;50.938;11.396;2023-08-06T10:22:13;3.35;;;1.50;;
73296;SDS011;61524;50.938;11.396;2023-08-06T10:25:15;4.25;;;2.28;;
73296;SDS011;61524;50.938;11.396;2023-08-06T10:32:46;3.42;;;1.83;;
73296;SDS011;61524;50.938;11.396;2023-08-06T10:35:27;3.40;;;1.95;;
73296;SDS011;61524;50.938;11.396;2023-08-06T10:37:53;4.43;;;1.55;;
73296;SDS011;61524;50.938;11.396;2023-08-06T10:40:20;3.40;;;1.60;;
73296;SDS011;61524;50.938;11.396;2023-08-06T10:42:46;3.65;;;1.30;;
73296;SDS011;61524;50.938;11.396;2023-08-06T10:45:14;3.13;;;1.60;;
73296;SDS011;61524;50.938;11.396;2023-08-06T10:47:40;3.53;;;1.60;;
73296;SDS011;61524;50.938;11.396;2023-08-06T10:50:06;2.70;;;1.55;;
73296;SDS011;61524;50.938;11.396;2023-08-06T10:52:32;4.72;;;1.80;;
73296;SDS011;61524;50.938;11.396;2023-08-06T10:54:58;3.05;;;1.38;;
73296;SDS011;61524;50.938;11.396;2023-08-06T10:57:23;3.22;;;1.50;;
73296;SDS011;61524;50.938;11.396;2023-08-06T10:59:49;2.63;;;1.38;;
73296;SDS011;61524;50.938;11.396;2023-08-06T11:02:14;3.50;;;1.58;;
73296;SDS011;61524;50.938;11.396;2023-08-06T11:04:39;3.37;;;1.80;;
73296;SDS011;61524;50.938;11.396;2023-08-06T11:07:06;3.88;;;1.52;;
73296;SDS011;61524;50.938;11.396;2023-08-06T11:11:57;3.97;;;1.52;;
73296;SDS011;61524;50.938;11.396;2023-08-06T11:14:22;2.72;;;1.25;;
73296;SDS011;61524;50.938;11.396;2023-08-06T11:16:47;3.00;;;1.70;;
73296;SDS011;61524;50.938;11.396;2023-08-06T11:19:13;4.07;;;1.55;;
73296;SDS011;61524;50.938;11.396;2023-08-06T11:21:40;2.75;;;1.42;;
73296;SDS011;61524;50.938;11.396;2023-08-06T11:24:05;3.25;;;1.40;;
73296;SDS011;61524;50.938;11.396;2023-08-06T11:26:31;2.80;;;1.40;;
73296;SDS011;61524;50.938;11.396;2023-08-06T11:28:56;3.42;;;1.50;;
73296;SDS011;61524;50.938;11.396;2023-08-06T11:31:22;2.40;;;1.23;;
73296;SDS011;61524;50.938;11.396;2023-08-06T11:33:47;3.05;;;1.35;;
73296;SDS011;61524;50.938;11.396;2023-08-06T11:36:13;9.07;;;2.03;;
73296;SDS011;61524;50.938;11.396;2023-08-06T11:38:38;2.93;;;1.40;;
73296;SDS011;61524;50.938;11.396;2023-08-06T11:41:03;5.18;;;2.25;;
73296;SDS011;61524;50.938;11.396;2023-08-06T11:43:30;5.53;;;1.48;;
73296;SDS011;61524;50.938;11.396;2023-08-06T11:45:56;2.83;;;1.42;;
73296;SDS011;61524;50.938;11.396;2023-08-06T11:48:21;4.03;;;1.80;;
73296;SDS011;61524;50.938;11.396;2023-08-06T11:50:46;2.97;;;1.33;;
73296;SDS011;61524;50.938;11.396;2023-08-06T11:53:12;3.03;;;1.33;;
73296;SDS011;61524;50.938;11.396;2023-08-06T11:55:38;3.35;;;1.40;;
73296;SDS011;61524;50.938;11.396;2023-08-06T11:58:03;6.80;;;1.60;;
73296;SDS011;61524;50.938;11.396;2023-08-06T12:02:54;3.55;;;1.70;;
73296;SDS011;61524;50.938;11.396;2023-08-06T12:05:21;2.90;;;1.23;;
73296;SDS011;61524;50.938;11.396;2023-08-06T12:07:51;3.53;;;1.50;;
73296;SDS011;61524;50.938;11.396;2023-08-06T12:10:17;3.85;;;1.50;;
73296;SDS011;61524;50.938;11.396;2023-08-06T12:12:42;3.88;;;2.15;;
73296;SDS011;61524;50.938;11.396;2023-08-06T12:15:08;2.75;;;1.20;;
73296;SDS011;61524;50.938;11.396;2023-08-06T12:17:34;2.53;;;1.20;;
73296;SDS011;61524;50.938;11.396;2023-08-06T12:19:59;3.67;;;1.70;;
73296;SDS011;61524;50.938;11.396;2023-08-06T12:22:25;3.35;;;1.45;;
73296;SDS011;61524;50.938;11.396;2023-08-06T12:24:50;4.18;;;1.20;;
73296;SDS011;61524;50.938;11.396;2023-08-06T12:27:15;2.33;;;1.10;;
73296;SDS011;61524;50.938;11.396;2023-08-06T12:29:45;3.45;;;1.30;;
73296;SDS011;61524;50.938;11.396;2023-08-06T12:32:10;4.40;;;1.50;;
73296;SDS011;61524;50.938;11.396;2023-08-06T12:34:37;3.60;;;1.52;;
73296;SDS011;61524;50.938;11.396;2023-08-06T12:37:02;2.78;;;1.45;;
73296;SDS011;61524;50.938;11.396;2023-08-06T12:39:28;3.38;;;1.60;;
73296;SDS011;61524;50.938;11.396;2023-08-06T12:41:54;4.50;;;1.58;;
73296;SDS011;61524;50.938;11.396;2023-08-06T12:44:20;4.13;;;1.80;;
73296;SDS011;61524;50.938;11.396;2023-08-06T12:46:45;2.85;;;1.55;;
73296;SDS011;61524;50.938;11.396;2023-08-06T12:49:11;3.60;;;1.40;;
73296;SDS011;61524;50.938;11.396;2023-08-06T12:51:36;2.88;;;1.50;;
73296;SDS011;61524;50.938;11.396;2023-08-06T12:54:01;3.25;;;1.70;;
73296;SDS011;61524;50.938;11.396;2023-08-06T12:56:26;3.00;;;1.23;;
73296;SDS011;61524;50.938;11.396;2023-08-06T12:58:52;3.35;;;1.40;;
73296;SDS011;61524;50.938;11.396;2023-08-06T13:01:17;2.80;;;1.30;;
73296;SDS011;61524;50.938;11.396;2023-08-06T13:03:42;3.60;;;1.30;;
73296;SDS011;61524;50.938;11.396;2023-08-06T13:06:08;2.88;;;1.10;;
73296;SDS011;61524;50.938;11.396;2023-08-06T13:08:34;3.20;;;1.30;;
73296;SDS011;61524;50.938;11.396;2023-08-06T13:11:00;2.65;;;1.10;;
73296;SDS011;61524;50.938;11.396;2023-08-06T13:13:25;3.73;;;1.20;;
73296;SDS011;61524;50.938;11.396;2023-08-06T13:18:17;2.25;;;1.00;;
73296;SDS011;61524;50.938;11.396;2023-08-06T13:20:42;3.95;;;1.60;;
73296;SDS011;61524;50.938;11.396;2023-08-06T13:23:08;3.75;;;1.38;;
73296;SDS011;61524;50.938;11.396;2023-08-06T13:25:33;2.50;;;1.13;;
73296;SDS011;61524;50.938;11.396;2023-08-06T13:28:02;2.35;;;0.98;;
73296;SDS011;61524;50.938;11.396;2023-08-06T13:30:27;3.05;;;1.48;;
73296;SDS011;61524;50.938;11.396;2023-08-06T13:32:52;3.07;;;1.13;;
73296;SDS011;61524;50.938;11.396;2023-08-06T13:35:18;3.25;;;1.42;;
73296;SDS011;61524;50.938;11.396;2023-08-06T13:37:43;2.80;;;1.40;;
73296;SDS011;61524;50.938;11.396;2023-08-06T13:40:09;2.67;;;1.23;;
73296;SDS011;61524;50.938;11.396;2023-08-06T13:42:34;5.00;;;1.30;;
73296;SDS011;61524;50.938;11.396;2023-08-06T13:44:59;2.97;;;1.20;;
73296;SDS011;61524;50.938;11.396;2023-08-06T13:47:28;3.97;;;1.48;;
73296;SDS011;61524;50.938;11.396;2023-08-06T13:49:54;3.50;;;1.42;;
73296;SDS011;61524;50.938;11.396;2023-08-06T13:52:20;3.08;;;1.42;;
73296;SDS011;61524;50.938;11.396;2023-08-06T13:57:11;3.13;;;1.33;;
73296;SDS011;61524;50.938;11.396;2023-08-06T13:59:36;4.57;;;1.70;;
73296;SDS011;61524;50.938;11.396;2023-08-06T14:02:01;2.70;;;1.57;;
73296;SDS011;61524;50.938;11.396;2023-08-06T14:04:27;3.90;;;1.30;;
73296;SDS011;61524;50.938;11.396;2023-08-06T14:06:52;3.30;;;1.40;;
73296;SDS011;61524;50.938;11.396;2023-08-06T14:09:17;2.50;;;1.10;;
73296;SDS011;61524;50.938;11.396;2023-08-06T14:11:43;1.90;;;1.00;;
73296;SDS011;61524;50.938;11.396;2023-08-06T14:14:09;2.53;;;1.20;;
73296;SDS011;61524;50.938;11.396;2023-08-06T14:16:34;2.63;;;1.00;;
73296;SDS011;61524;50.938;11.396;2023-08-06T14:18:59;2.90;;;1.02;;
73296;SDS011;61524;50.938;11.396;2023-08-06T14:21:25;2.43;;;1.10;;
73296;SDS011;61524;50.938;11.396;2023-08-06T14:23:50;2.17;;;0.87;;
73296;SDS011;61524;50.938;11.396;2023-08-06T14:26:15;2.45;;;1.20;;
73296;SDS011;61524;50.938;11.396;2023-08-06T14:31:07;1.93;;;0.87;;
73296;SDS011;61524;50.938;11.396;2023-08-06T14:33:32;1.30;;;0.80;;
73296;SDS011;61524;50.938;11.396;2023-08-06T14:35:57;1.95;;;0.80;;
73296;SDS011;61524;50.938;11.396;2023-08-06T14:38:23;3.77;;;0.97;;
73296;SDS011;61524;50.938;11.396;2023-08-06T14:40:48;1.83;;;0.90;;
73296;SDS011;61524;50.938;11.396;2023-08-06T14:43:13;2.75;;;1.00;;
73296;SDS011;61524;50.938;11.396;2023-08-06T14:45:39;2.60;;;0.70;;
73296;SDS011;61524;50.938;11.396;2023-08-06T14:48:04;1.58;;;0.70;;
73296;SDS011;61524;50.938;11.396;2023-08-06T14:50:29;0.95;;;0.60;;
73296;SDS011;61524;50.938;11.396;2023-08-06T14:52:55;1.30;;;0.47;;